createdAt,value
2018-11-21T00:00:42.647Z,-1.19
2018-11-21T00:03:31.801Z,-1.07
2018-11-21T00:06:14.917Z,-1.10
2018-11-21T00:09:05.127Z,-1.04
2018-11-21T00:11:49.176Z,-0.94
2018-11-21T00:14:57.523Z,-0.79
2018-11-21T00:17:39.755Z,-0.62
2018-11-21T00:23:25.683Z,-0.43
2018-11-21T00:26:37.798Z,-0.45
2018-11-21T00:29:20.412Z,-0.40
2018-11-21T00:32:30.188Z,-0.29
2018-11-21T00:38:13.260Z,-0.26
2018-11-21T00:41:02.685Z,-0.44
2018-11-21T00:43:45.186Z,-0.30
2018-11-21T00:49:27.216Z,-0.06
2018-11-21T00:52:16.573Z,0.14
2018-11-21T00:55:06.154Z,0.28
2018-11-21T00:57:48.112Z,0.44
2018-11-21T01:00:37.733Z,0.36
2018-11-21T01:03:27.816Z,0.26
2018-11-21T01:06:17.357Z,0.16
2018-11-21T01:09:07.856Z,0.09
2018-11-21T01:11:57.407Z,0.08
2018-11-21T01:14:47.054Z,-0.06
2018-11-21T01:17:36.668Z,0.20
2018-11-21T01:20:25.942Z,0.31
2018-11-21T01:23:15.677Z,0.46
2018-11-21T01:26:05.252Z,0.45
2018-11-21T01:28:54.480Z,0.40
2018-11-21T01:31:44.428Z,0.27
2018-11-21T01:34:34.107Z,0.19
2018-11-21T01:37:23.744Z,0.26
2018-11-21T01:40:07.278Z,0.26
2018-11-21T01:42:56.828Z,0.19
2018-11-21T01:45:46.392Z,0.14
2018-11-21T01:48:36.939Z,0.06
2018-11-21T01:51:26.548Z,0.13
2018-11-21T01:54:16.171Z,0.21
2018-11-21T01:57:05.742Z,0.24
2018-11-21T01:59:55.584Z,0.24
2018-11-21T02:02:45.107Z,0.27
2018-11-21T02:05:14.856Z,0.23
2018-11-21T02:08:14.992Z,0.18
2018-11-21T02:14:01.030Z,0.30
2018-11-21T02:35:26.776Z,0.17
2018-11-21T02:38:09.112Z,0.19
2018-11-21T02:40:58.855Z,0.40
2018-11-21T02:43:48.352Z,0.40
2018-11-21T02:46:37.838Z,0.49
2018-11-21T02:49:27.905Z,0.53
2018-11-21T02:52:17.417Z,0.61
2018-11-21T02:55:07.118Z,0.57
2018-11-21T02:57:56.379Z,0.60
2018-11-21T03:00:45.668Z,0.59
2018-11-21T03:03:35.265Z,0.55
2018-11-21T03:06:24.736Z,0.59
2018-11-21T03:09:07.457Z,0.58
2018-11-21T03:11:56.633Z,0.85
2018-11-21T03:14:41.292Z,0.97
2018-11-21T03:17:30.679Z,1.00
2018-11-21T03:20:12.467Z,1.13
2018-11-21T03:23:01.978Z,1.14
2018-11-21T03:25:44.721Z,1.24
2018-11-21T03:28:34.109Z,1.25
2018-11-21T03:31:16.083Z,1.25
2018-11-21T03:34:05.341Z,0.93
2018-11-21T03:36:51.102Z,0.75
2018-11-21T03:39:40.462Z,0.55
2018-11-21T03:42:23.057Z,0.63
2018-11-21T03:45:13.301Z,0.50
2018-11-21T03:47:55.502Z,0.54
2018-11-21T03:50:45.546Z,0.72
2018-11-21T03:53:34.883Z,0.80
2018-11-21T03:56:24.369Z,1.05
2018-11-21T03:59:14.330Z,1.20
2018-11-21T04:02:04.210Z,1.23
2018-11-21T04:04:53.777Z,1.29
2018-11-21T04:07:43.850Z,1.33
2018-11-21T04:10:33.347Z,1.24
2018-11-21T04:13:42.137Z,1.30
2018-11-21T04:16:31.433Z,1.42
2018-11-21T04:19:20.641Z,1.37
2018-11-21T04:22:10.698Z,1.50
2018-11-21T04:25:00.222Z,1.63
2018-11-21T04:27:50.228Z,1.56
2018-11-21T04:30:40.341Z,1.73
2018-11-21T04:33:30.016Z,1.73
2018-11-21T04:36:19.152Z,1.43
2018-11-21T04:39:09.757Z,1.44
2018-11-21T04:41:59.186Z,1.41
2018-11-21T04:44:28.996Z,1.34
2018-11-21T04:47:18.328Z,1.44
2018-11-21T04:50:01.129Z,1.52
2018-11-21T04:52:50.732Z,1.58
2018-11-21T04:55:40.020Z,1.65
2018-11-21T04:58:29.535Z,1.52
2018-11-21T05:01:19.113Z,1.62
2018-11-21T05:04:08.472Z,1.63
2018-11-21T05:06:57.831Z,1.79
2018-11-21T05:09:47.078Z,1.73
2018-11-21T05:12:36.775Z,1.55
2018-11-21T05:15:26.132Z,1.45
2018-11-21T05:18:15.285Z,1.05
2018-11-21T05:21:04.928Z,1.14
2018-11-21T05:23:54.310Z,1.27
2018-11-21T05:26:43.815Z,1.37
2018-11-21T05:29:32.917Z,1.42
2018-11-21T05:32:16.956Z,1.52
2018-11-21T05:35:06.643Z,1.41
2018-11-21T05:37:53.418Z,1.68
2018-11-21T05:40:42.808Z,1.75
2018-11-21T05:43:25.096Z,1.79
2018-11-21T05:46:34.336Z,1.61
2018-11-21T05:49:20.913Z,1.54
2018-11-21T05:52:09.918Z,1.59
2018-11-21T05:54:53.382Z,1.61
2018-11-21T05:58:03.128Z,1.73
2018-11-21T06:00:49.217Z,1.81
2018-11-21T06:06:50.181Z,1.71
2018-11-21T06:09:39.655Z,1.86
2018-11-21T06:15:33.122Z,1.50
2018-11-21T06:18:15.239Z,1.63
2018-11-21T06:21:27.056Z,1.53
2018-11-21T06:24:08.855Z,1.28
2018-11-21T06:27:11.229Z,0.93
2018-11-21T06:29:53.958Z,0.80
2018-11-21T06:32:43.658Z,0.90
2018-11-21T06:35:26.577Z,0.82
2018-11-21T06:47:11.379Z,0.99
2018-11-21T06:50:00.569Z,1.21
2018-11-21T06:52:43.011Z,1.17
2018-11-21T07:13:45.041Z,1.58
2018-11-21T07:16:35.209Z,1.66
2018-11-21T07:22:17.311Z,1.60
2018-11-21T07:25:26.952Z,1.53
2018-11-21T07:28:13.064Z,1.24
2018-11-21T07:30:59.719Z,1.30
2018-11-21T07:33:46.495Z,1.45
2018-11-21T07:36:31.755Z,1.37
2018-11-21T07:42:16.841Z,1.59
2018-11-21T07:45:07.917Z,1.37
2018-11-21T07:47:50.127Z,1.42
2018-11-21T07:50:39.293Z,1.46
2018-11-21T07:53:22.171Z,1.42
2018-11-21T07:56:49.909Z,1.56
2018-11-21T07:59:38.939Z,1.62
2018-11-21T08:02:25.509Z,1.51
2018-11-21T08:05:19.870Z,1.42
2018-11-21T08:08:28.099Z,1.54
2018-11-21T08:11:37.547Z,1.70
2018-11-21T08:14:45.646Z,1.66
2018-11-21T08:17:53.717Z,1.45
2018-11-21T08:21:01.824Z,1.34
2018-11-21T08:24:09.855Z,1.37
2018-11-21T08:27:17.954Z,1.54
2018-11-21T08:29:47.647Z,1.73
2018-11-21T08:32:36.757Z,1.57
2018-11-21T08:35:18.661Z,1.54
2018-11-21T08:38:07.793Z,1.75
2018-11-21T08:40:56.953Z,1.42
2018-11-21T08:43:46.141Z,1.70
2018-11-21T08:46:35.939Z,1.81
2018-11-21T08:49:24.967Z,1.89
2018-11-21T08:52:14.022Z,2.05
2018-11-21T08:55:08.771Z,2.05
2018-11-21T08:57:45.553Z,2.27
2018-11-21T09:00:34.852Z,2.22
2018-11-21T09:03:16.598Z,2.29
2018-11-21T09:06:05.962Z,1.95
2018-11-21T09:08:47.735Z,2.04
2018-11-21T09:11:37.143Z,1.94
2018-11-21T09:14:18.867Z,2.06
2018-11-21T09:17:07.898Z,1.89
2018-11-21T09:19:50.002Z,1.97
2018-11-21T09:22:39.090Z,2.06
2018-11-21T09:25:21.624Z,2.05
2018-11-21T09:28:10.708Z,2.18
2018-11-21T09:30:52.478Z,2.11
2018-11-21T09:33:41.530Z,2.21
2018-11-21T09:36:25.016Z,2.12
2018-11-21T09:39:14.449Z,2.24
2018-11-21T09:41:56.787Z,2.34
2018-11-21T09:44:45.872Z,2.39
2018-11-21T09:47:28.023Z,1.95
2018-11-21T09:50:19.168Z,1.90
2018-11-21T09:53:01.252Z,1.79
2018-11-21T09:55:50.399Z,1.78
2018-11-21T09:58:31.973Z,1.61
2018-11-21T10:01:59.631Z,1.83
2018-11-21T10:04:41.618Z,1.77
2018-11-21T10:07:30.727Z,2.01
2018-11-21T10:10:12.946Z,1.41
2018-11-21T10:13:02.010Z,1.27
2018-11-21T10:15:43.704Z,1.35
2018-11-21T10:18:33.260Z,1.88
2018-11-21T10:21:19.989Z,1.97
2018-11-21T10:24:09.108Z,2.02
2018-11-21T10:26:51.416Z,2.22
2018-11-21T10:29:40.496Z,2.35
2018-11-21T10:32:22.590Z,2.42
2018-11-21T10:35:12.015Z,2.62
2018-11-21T10:37:54.516Z,2.75
2018-11-21T10:40:43.609Z,2.71
2018-11-21T10:43:28.465Z,2.35
2018-11-21T10:46:16.007Z,2.43
2018-11-21T10:48:58.718Z,2.54
2018-11-21T10:51:47.790Z,2.38
2018-11-21T10:54:29.578Z,2.62
2018-11-21T10:57:18.659Z,2.59
2018-11-21T11:00:00.580Z,2.38
2018-11-21T11:03:08.552Z,2.18
2018-11-21T11:06:09.572Z,2.26
2018-11-21T11:09:17.611Z,2.08
2018-11-21T11:12:18.344Z,2.20
2018-11-21T11:15:26.490Z,2.45
2018-11-21T11:18:27.325Z,2.52
2018-11-21T11:21:35.320Z,2.39
2018-11-21T11:24:35.868Z,2.52
2018-11-21T11:27:43.843Z,2.47
2018-11-21T11:30:44.836Z,2.62
2018-11-21T11:33:52.834Z,2.75
2018-11-21T11:39:57.110Z,2.71
2018-11-21T11:43:05.125Z,2.79
2018-11-21T11:46:08.870Z,2.72
2018-11-21T11:49:16.868Z,2.68
2018-11-21T11:52:18.117Z,2.56
2018-11-21T11:55:27.222Z,2.86
2018-11-21T11:58:28.352Z,2.71
2018-11-21T12:01:36.324Z,2.57
2018-11-21T12:04:43.210Z,2.65
2018-11-21T12:07:51.186Z,2.68
2018-11-21T12:10:55.234Z,2.75
2018-11-21T12:14:03.250Z,2.61
2018-11-21T12:17:03.912Z,2.73
2018-11-21T12:20:11.945Z,2.74
2018-11-21T12:23:12.961Z,2.69
2018-11-21T12:26:20.951Z,2.39
2018-11-21T12:29:22.179Z,2.27
2018-11-21T12:32:30.183Z,2.46
2018-11-21T12:35:32.717Z,2.37
2018-11-21T12:38:40.713Z,2.53
2018-11-21T12:41:41.692Z,2.62
2018-11-21T12:44:49.680Z,2.68
2018-11-21T12:47:50.860Z,2.73
2018-11-21T12:50:46.828Z,2.71
2018-11-21T12:53:48.039Z,2.77
2018-11-21T12:56:56.030Z,2.83
2018-11-21T12:59:59.263Z,2.66
2018-11-21T13:03:07.274Z,2.45
2018-11-21T13:06:09.719Z,2.25
2018-11-21T13:09:17.770Z,2.22
2018-11-21T13:12:19.693Z,2.05
2018-11-21T13:15:28.151Z,2.21
2018-11-21T13:18:31.247Z,2.20
2018-11-21T13:21:39.301Z,2.24
2018-11-21T13:24:40.525Z,2.11
2018-11-21T13:27:48.491Z,2.33
2018-11-21T13:30:55.839Z,2.35
2018-11-21T13:34:03.836Z,2.55
2018-11-21T13:36:59.668Z,2.47
2018-11-21T13:40:09.810Z,2.50
2018-11-21T13:43:11.093Z,2.66
2018-11-21T13:46:19.062Z,2.88
2018-11-21T13:55:01.523Z,2.88
2018-11-21T13:57:51.185Z,2.64
2018-11-21T14:00:40.224Z,2.70
2018-11-21T14:03:29.651Z,2.57
2018-11-21T14:06:18.805Z,2.43
2018-11-21T14:09:10.667Z,2.55
2018-11-21T14:11:52.514Z,2.54
2018-11-21T14:14:41.620Z,2.48
2018-11-21T14:17:27.676Z,2.64
2018-11-21T14:20:13.555Z,2.69
2018-11-21T14:22:55.987Z,2.61
2018-11-21T14:25:45.898Z,2.68
2018-11-21T14:28:32.234Z,2.62
2018-11-21T14:31:21.286Z,2.55
2018-11-21T14:34:03.290Z,2.33
2018-11-21T14:36:52.352Z,2.52
2018-11-21T14:39:34.535Z,2.65
2018-11-21T14:42:23.579Z,2.83
2018-11-21T14:45:31.729Z,2.74
2018-11-21T14:48:15.366Z,2.81
2018-11-21T14:51:01.036Z,2.88
2018-11-21T14:53:43.728Z,2.92
2018-11-21T14:56:32.932Z,3.01
2018-11-21T14:59:22.184Z,2.92
2018-11-21T15:02:11.375Z,2.93
2018-11-21T15:05:00.487Z,2.95
2018-11-21T15:07:49.516Z,3.03
2018-11-21T15:10:38.588Z,3.00
2018-11-21T15:13:27.654Z,2.98
2018-11-21T15:16:09.572Z,2.93
2018-11-21T15:18:58.650Z,2.84
2018-11-21T15:21:40.884Z,2.92
2018-11-21T15:24:29.894Z,2.98
2018-11-21T15:27:11.830Z,2.90
2018-11-21T15:30:01.050Z,2.86
2018-11-21T15:32:42.863Z,2.85
2018-11-21T15:35:31.893Z,3.07
2018-11-21T15:38:13.735Z,2.83
2018-11-21T15:41:02.820Z,2.84
2018-11-21T15:43:44.879Z,2.91
2018-11-21T15:46:33.980Z,2.88
2018-11-21T15:52:14.691Z,2.29
2018-11-21T15:54:56.926Z,1.74
2018-11-21T15:57:46.068Z,1.48
2018-11-21T16:00:36.124Z,1.52
2018-11-21T16:03:25.408Z,1.36
2018-11-21T16:06:14.612Z,1.47
2018-11-21T16:09:03.821Z,1.36
2018-11-21T16:11:52.951Z,1.36
2018-11-21T16:14:42.065Z,1.34
2018-11-21T16:17:31.212Z,1.23
2018-11-21T16:20:20.596Z,1.16
2018-11-21T16:23:09.994Z,1.12
2018-11-21T16:25:59.113Z,1.01
2018-11-21T16:28:48.274Z,1.03
2018-11-21T16:31:17.984Z,1.00
2018-11-21T16:34:07.240Z,0.98
2018-11-21T16:36:56.348Z,1.02
2018-11-21T16:39:45.491Z,1.00
2018-11-21T16:42:34.750Z,1.01
2018-11-21T16:48:06.820Z,1.01
2018-11-21T16:50:55.919Z,0.99
2018-11-21T16:53:37.704Z,1.02
2018-11-21T16:56:26.766Z,1.13
2018-11-21T17:02:20.760Z,1.11
2018-11-21T17:05:03.827Z,1.11
2018-11-21T17:07:47.181Z,1.13
2018-11-21T17:10:36.273Z,1.11
2018-11-21T17:13:18.081Z,1.05
2018-11-21T17:16:07.154Z,1.03
2018-11-21T17:18:52.873Z,1.02
2018-11-21T17:21:41.921Z,1.02
2018-11-21T17:24:24.319Z,1.02
2018-11-21T17:27:13.348Z,0.99
2018-11-21T17:29:55.362Z,0.95
2018-11-21T17:32:44.497Z,1.04
2018-11-21T17:35:29.733Z,1.09
2018-11-21T17:38:18.820Z,1.05
2018-11-21T17:41:07.877Z,0.91
2018-11-21T17:43:50.453Z,1.00
2018-11-21T17:46:33.154Z,0.84
2018-11-21T17:49:22.283Z,0.91
2018-11-21T17:52:12.066Z,0.88
2018-11-21T17:55:02.326Z,0.90
2018-11-21T18:03:41.157Z,1.00
2018-11-21T18:06:31.367Z,0.99
2018-11-21T18:09:21.793Z,1.00
2018-11-21T18:12:13.885Z,0.99
2018-11-21T18:15:23.397Z,0.96
2018-11-21T18:27:41.327Z,0.85
2018-11-21T18:30:31.671Z,0.97
2018-11-21T18:33:16.182Z,0.92
2018-11-21T18:36:05.502Z,1.06
2018-11-21T18:41:52.740Z,1.03
2018-11-21T18:44:42.252Z,1.14
2018-11-21T18:50:30.755Z,0.93
2018-11-21T18:53:18.020Z,1.06
2018-11-21T18:56:03.847Z,1.02
2018-11-21T18:58:59.138Z,1.09
2018-11-21T19:04:41.413Z,0.99
2018-11-21T19:07:30.831Z,0.95
2018-11-21T19:22:23.118Z,1.01
2018-11-21T19:25:13.614Z,1.04
2018-11-21T19:27:58.088Z,1.13
2018-11-21T19:33:48.205Z,1.20
2018-11-21T19:36:34.914Z,1.09
2018-11-21T19:45:09.486Z,1.27
2018-11-21T19:47:59.066Z,1.20
2018-11-21T19:51:10.816Z,1.17
2018-11-21T19:53:54.659Z,1.21
2018-11-21T19:56:39.948Z,1.17
2018-11-21T19:59:22.756Z,1.40
2018-11-21T20:02:12.513Z,1.33
2018-11-21T20:05:01.795Z,1.26
2018-11-21T20:07:51.094Z,1.41
2018-11-21T20:10:33.345Z,1.62
2018-11-21T20:13:22.403Z,1.70
2018-11-21T20:16:04.052Z,1.59
2018-11-21T20:18:53.257Z,1.64
2018-11-21T20:21:42.400Z,1.65
2018-11-21T20:24:31.566Z,1.76
2018-11-21T20:27:20.723Z,1.63
2018-11-21T20:29:54.655Z,1.67
2018-11-21T20:32:20.155Z,1.68
2018-11-21T20:34:49.908Z,1.59
2018-11-21T20:37:39.567Z,1.46
2018-11-21T20:40:31.368Z,1.52
2018-11-21T20:43:20.532Z,1.50
2018-11-21T20:46:09.648Z,1.39
2018-11-21T20:48:59.242Z,1.36
2018-11-21T20:51:28.990Z,1.26
2018-11-21T20:54:18.121Z,1.35
2018-11-21T20:57:00.146Z,1.17
2018-11-21T20:59:49.325Z,1.30
2018-11-21T21:02:39.207Z,1.24
2018-11-21T21:05:28.652Z,1.02
2018-11-21T21:08:17.812Z,0.97
2018-11-21T21:11:07.399Z,1.10
2018-11-21T21:16:39.057Z,1.12
2018-11-21T21:19:28.512Z,1.12
2018-11-21T21:22:10.465Z,1.14
2018-11-21T21:25:02.271Z,1.15
2018-11-21T21:27:44.196Z,1.12
2018-11-21T21:30:34.018Z,1.21
2018-11-21T21:33:16.779Z,1.16
2018-11-21T21:36:06.047Z,1.09
2018-11-21T21:38:48.276Z,1.06
2018-11-21T21:41:37.357Z,1.03
2018-11-21T21:44:19.379Z,0.94
2018-11-21T21:47:08.432Z,1.07
2018-11-21T21:49:54.721Z,1.12
2018-11-21T21:52:43.806Z,1.10
2018-11-21T21:55:26.751Z,1.12
2018-11-21T21:58:15.816Z,1.09
2018-11-21T22:00:57.823Z,1.14
2018-11-21T22:03:47.111Z,1.12
2018-11-21T22:06:36.027Z,1.07
2018-11-21T22:09:25.140Z,1.19
2018-11-21T22:12:07.302Z,1.17
2018-11-21T22:14:56.373Z,1.24
2018-11-21T22:17:39.037Z,1.27
2018-11-21T22:20:28.149Z,1.25
2018-11-21T22:23:09.865Z,1.36
2018-11-21T22:25:59.017Z,1.58
2018-11-21T22:28:42.723Z,1.50
2018-11-21T22:31:32.186Z,1.65
2018-11-21T22:34:14.719Z,1.74
2018-11-21T22:37:04.135Z,1.77
2018-11-21T22:42:58.511Z,1.56
2018-11-21T22:45:47.637Z,1.65
2018-11-21T22:48:29.583Z,1.57
2018-11-21T22:51:18.662Z,1.62
2018-11-21T22:54:00.909Z,1.69
2018-11-21T22:56:50.459Z,1.57
2018-11-21T22:59:33.216Z,1.58
2018-11-21T23:02:22.323Z,1.80
2018-11-21T23:05:04.443Z,1.87
2018-11-21T23:07:53.569Z,1.59
2018-11-21T23:10:35.726Z,1.46
2018-11-21T23:13:25.702Z,1.47
2018-11-21T23:16:07.509Z,1.50
2018-11-21T23:18:56.645Z,1.33
2018-11-21T23:21:38.822Z,1.35
2018-11-21T23:24:28.152Z,1.23
2018-11-21T23:27:10.698Z,1.18
2018-11-21T23:30:00.622Z,1.22
2018-11-21T23:32:43.532Z,1.21
2018-11-21T23:35:33.469Z,1.13
2018-11-21T23:38:22.932Z,1.18
2018-11-21T23:41:06.340Z,1.28
2018-11-21T23:43:55.490Z,1.20
2018-11-21T23:46:45.022Z,1.16
2018-11-21T23:49:34.602Z,1.17
2018-11-21T23:52:24.050Z,1.35
2018-11-21T23:55:15.572Z,1.38
2018-11-21T23:58:04.889Z,1.38
